DW7832 Weather Reports


Display with metric or nautical units.
time (UTC)temp
F
wind
direction
speed
MPH
gust
MPH
rain 1hr
in
rain 24hr
in
rain mn
in
humidity
%
barometer
mb
20171215175043 19 284 1.0 5.0 0.00 0.00 0.00 77 1015.7
20171215173408 18 98 1.0 3.0 0.00 0.00 0.00 77 1016.0
20171215171732 18 340 0.0 4.0 0.00 0.00 0.00 76 1016.4
20171215170038 18 324 1.0 5.0 0.00 0.00 0.00 76 1016.7
20171215164410 18 301 1.0 3.0 0.00 0.00 0.00 78 1016.8
20171215162716 17 110 0.0 2.0 0.00 0.00 0.00 78 1017.2
20171215161045 17 183 0.0 2.0 0.00 0.00 0.00 79 1017.6
20171215155402 16 161 0.0 1.0 0.00 0.00 0.00 80 1017.9
20171215153726 16 201 0.0 0.0 0.00 0.00 0.00 81 1018.3
20171215152240 15 174 0.0 0.0 0.00 0.00 0.00 80 1018.6
20171215150428 14 172 0.0 0.0 0.00 0.00 0.00 82 1018.7
20171215144740 14 135 0.0 1.0 0.00 0.00 0.00 83 1018.7
20171215143135 13 102 1.0 5.0 0.00 0.00 0.00 83 1018.9
20171215141434 12 106 0.0 2.0 0.00 0.00 0.00 85 1018.7
20171215135804 11 142 0.0 1.0 0.00 0.00 0.00 88 1018.6
20171215134058 10 156 0.0 0.0 0.00 0.00 0.00 89 1018.3
20171215132434 9 156 0.0 0.0 0.00 0.00 0.00 89 1017.9
20171215130813 8 156 0.0 1.0 0.00 0.00 0.00 90 1017.9
20171215125110 0 0.0 0.0 0.00 0.00 0.00 1017.9
20171215123315 0 0.0 0.0 0.00 0.00 0.00 1018.1
20171215121239 0 0.0 0.0 0.00 0.00 0.00 1017.7
20171215115452 0 0.0 0.0 0.00 0.00 0.00 1017.8
20171215113706 0 0.0 0.0 0.00 0.00 0.00 1017.6
20171215111952 0 0.0 0.0 0.00 0.00 0.00 1017.2
20171215110229 0 0.0 0.0 0.00 0.00 0.00 1017.2
20171215104531 0 0.0 0.0 0.00 0.00 0.00 1017.0
20171215102714 0 0.0 0.0 0.00 0.00 0.00 1017.0
20171215101041 0 0.0 0.0 0.00 0.00 0.00 1017.1
20171215095243 0 0.0 0.0 0.00 0.00 0.00 1017.3
20171215093530 0 0.0 0.0 0.00 0.00 0.00 1017.2
20171215091806 0 0.0 0.0 0.00 0.00 0.00 1017.2
20171215090036 0 0.0 0.0 0.00 0.00 0.00 1017.3
20171215084328 0 0.0 0.0 0.00 0.00 0.00 1017.3
20171215082455 0 0.0 0.0 0.00 0.00 0.00 1017.1
20171215080732 0 0.0 0.0 0.00 0.00 0.00 1017.2
20171215074942 11 115 5.0 7.0 0.00 0.00 0.00 84 1017.1
20171215073239 11 110 5.0 10.0 0.00 0.00 0.00 83 1016.8
20171215071609 11 101 7.0 13.0 0.00 0.00 0.00 83 1016.8
20171215065918 11 98 4.0 15.0 0.00 0.00 0.00 83 1016.6
20171215064232 10 112 5.0 11.0 0.00 0.00 0.00 83 1016.5
20171215062604 11 89 6.0 11.0 0.00 0.00 0.00 82 1016.2
20171215060934 11 102 5.0 11.0 0.00 0.00 0.00 81 1015.8
20171215055245 11 110 5.0 14.0 0.00 0.00 0.00 80 1015.7
20171215053615 11 115 6.0 16.0 0.00 0.00 0.00 79 1015.8
20171215051935 11 121 7.0 15.0 0.00 0.00 0.00 80 1015.7
20171215050238 11 125 5.0 15.0 0.00 0.00 0.00 80 1015.8
20171215044621 11 99 8.0 15.0 0.00 0.00 0.00 80 1016.0
20171215042916 11 85 6.0 15.0 0.00 0.00 0.00 80 1015.8
20171215041221 10 101 8.0 19.0 0.00 0.00 0.00 80 1015.5
20171215035534 10 78 11.0 21.0 0.00 0.00 0.00 80 1015.5
20171215033929 10 39 9.0 22.0 0.00 0.00 0.00 79 1015.3
20171215032259 11 79 13.0 25.0 0.00 0.00 0.00 79 1015.0
20171215030558 11 126 12.0 27.0 0.00 0.00 0.00 79 1015.0
20171215024848 11 86 7.0 18.0 0.00 0.00 0.00 78 1014.5
20171215023208 11 67 10.0 19.0 0.00 0.00 0.00 78 1014.4
20171215021543 11 65 9.0 22.0 0.00 0.00 0.00 78 1014.3
20171215015849 11 78 9.0 22.0 0.00 0.00 0.00 77 1014.1
20171215014200 11 84 11.0 24.0 0.00 0.00 0.00 76 1013.9
20171215012532 11 90 8.0 27.0 0.00 0.00 0.00 76 1013.7
20171215010901 11 119 15.0 31.0 0.00 0.00 0.00 75 1013.6
20171215005204 11 115 10.0 24.0 0.00 0.00 0.00 75 1013.3
20171215003526 11 126 10.0 24.0 0.00 0.00 0.00 75 1013.2
20171215001900 11 84 15.0 26.0 0.00 0.00 0.00 75 1012.8
20171215000208 11 98 10.0 20.0 0.00 0.00 0.00 74 1012.8
20171214234516 11 117 8.0 19.0 0.00 0.00 0.00 73 1012.4
20171214232837 11 126 14.0 25.0 0.00 0.00 0.00 72 1012.3
20171214231149 10 91 9.0 24.0 0.00 0.00 0.00 71 1011.8
20171214225513 10 113 7.0 14.0 0.00 0.00 0.00 71 1011.5
20171214223814 10 126 10.0 22.0 0.00 0.00 0.00 68 1011.5
20171214222132 11 79 9.0 21.0 0.00 0.00 0.00 67 1011.3
20171214220506 11 115 10.0 28.0 0.00 0.00 0.00 65 1010.8
20171214214800 12 119 14.0 29.0 0.00 0.00 0.00 64 1010.4
20171214213127 13 110 5.0 22.0 0.00 0.00 0.00 63 1010.3
20171214211456 13 105 11.0 20.0 0.00 0.00 0.00 63 1010.0
20171214205750 14 114 9.0 20.0 0.00 0.00 0.00 61 1009.6
20171214204128 15 114 9.0 24.0 0.00 0.00 0.00 60 1009.1
20171214202434 15 108 11.0 22.0 0.00 0.00 0.00 55 1009.0
20171214200743 16 115 8.0 20.0 0.00 0.00 0.00 55 1008.3
20171214195058 17 98 9.0 18.0 0.00 0.00 0.00 54 1008.1
20171214193434 17 98 12.0 21.0 0.00 0.00 0.00 54 1007.8
20171214191755 17 82 10.0 24.0 0.00 0.00 0.00 54 1007.6
20171214190051 18 114 9.0 19.0 0.00 0.00 0.00 55 1007.2
20171214184416 18 101 14.0 23.0 0.00 0.00 0.00 53 1006.6
20171214182743 19 53 10.0 22.0 0.00 0.00 0.00 57 1006.2
20171214181101 19 119 7.0 22.0 0.00 0.00 0.00 57 1006.1